BAW4LS KLAS-EGLL
Flight info
| Callsign | BAW4LS |
|---|---|
| Flight time | N/A |
| Altitude | 35000 |
| Route | RATPK3 FRNCK DCT EKR DCT MBW DCT DPR/N0487F370 DCT GABOV DCT RIONA DCT 53N085W DCT HELMO DCT PELSI/M084F370 DCT RADUN DCT 61N050W/M084F390 61N040W 60N030W 58N020W DCT SUNOT/N0479F390 DCT KESIX DCT MIMKU DCT KELLY L10 WAL UY53 NUGRA NUGRA2H |
| Aircraft | A35K/H-SBDE1E2E3GHIJ1J3J4J5J6M1M2P2RWXYZ/LB1D1 |
Departure
| Time | N/A |
|---|---|
| Airport | Harry Reid International Airport (KLAS) |
Arrival
| Time | 2026-05-04 16:22 |
|---|---|
| Airport | London Heathrow Airport (EGLL) |
| Time | Latitude | Longitude | Altitude | Speed | Heading |
|---|---|---|---|---|---|
| 2026-05-04 13:15 | 61.07086 | -42.55451 | 39242 ft | 525 kts | 91° |
| 2026-05-04 13:15 | 61.06947 | -42.47903 | 39242 ft | 525 kts | 91° |
| 2026-05-04 13:16 | 61.06658 | -42.32853 | 39238 ft | 525 kts | 91° |
| 2026-05-04 13:16 | 61.06352 | -42.17791 | 39235 ft | 524 kts | 91° |
| 2026-05-04 13:17 | 61.06032 | -42.02836 | 39236 ft | 524 kts | 92° |
| 2026-05-04 13:17 | 61.05690 | -41.87691 | 39234 ft | 524 kts | 92° |
| 2026-05-04 13:18 | 61.05335 | -41.72674 | 39232 ft | 524 kts | 92° |
| 2026-05-04 13:18 | 61.04965 | -41.57747 | 39227 ft | 524 kts | 92° |
| 2026-05-04 13:19 | 61.04576 | -41.42700 | 39223 ft | 524 kts | 92° |
| 2026-05-04 13:19 | 61.04169 | -41.27659 | 39222 ft | 524 kts | 92° |
| 2026-05-04 13:20 | 61.03747 | -41.12627 | 39221 ft | 524 kts | 93° |
| 2026-05-04 13:20 | 61.03307 | -40.97613 | 39218 ft | 524 kts | 93° |
| 2026-05-04 13:21 | 61.02855 | -40.82703 | 39215 ft | 524 kts | 93° |
| 2026-05-04 13:21 | 61.02383 | -40.67723 | 39211 ft | 524 kts | 93° |
| 2026-05-04 13:22 | 61.01894 | -40.52711 | 39210 ft | 524 kts | 93° |
| 2026-05-04 13:22 | 61.01389 | -40.37741 | 39211 ft | 523 kts | 94° |
| 2026-05-04 13:23 | 61.00867 | -40.22756 | 39208 ft | 523 kts | 94° |
| 2026-05-04 13:23 | 61.00329 | -40.07787 | 39210 ft | 523 kts | 94° |
| 2026-05-04 13:24 | 60.99735 | -39.92846 | 39209 ft | 523 kts | 96° |
| 2026-05-04 13:24 | 60.98816 | -39.78063 | 39206 ft | 523 kts | 98° |
| 2026-05-04 13:25 | 60.97310 | -39.55805 | 39206 ft | 523 kts | 97° |
| 2026-05-04 13:25 | 60.96342 | -39.41004 | 39206 ft | 522 kts | 97° |
| 2026-05-04 13:26 | 60.95372 | -39.26158 | 39201 ft | 522 kts | 97° |
| 2026-05-04 13:26 | 60.94388 | -39.11328 | 39201 ft | 522 kts | 97° |
| 2026-05-04 13:27 | 60.93386 | -38.96512 | 39201 ft | 522 kts | 98° |
| 2026-05-04 13:27 | 60.92374 | -38.81816 | 39201 ft | 522 kts | 98° |
| 2026-05-04 13:28 | 60.91340 | -38.67037 | 39202 ft | 522 kts | 98° |
| 2026-05-04 13:28 | 60.90290 | -38.52281 | 39203 ft | 522 kts | 98° |
| 2026-05-04 13:29 | 60.89225 | -38.37548 | 39205 ft | 522 kts | 98° |
| 2026-05-04 13:29 | 60.88143 | -38.22805 | 39203 ft | 522 kts | 98° |
| 2026-05-04 13:30 | 60.87051 | -38.08154 | 39204 ft | 522 kts | 98° |
| 2026-05-04 13:30 | 60.85938 | -37.93456 | 39200 ft | 522 kts | 99° |
| 2026-05-04 13:31 | 60.84806 | -37.78730 | 39203 ft | 521 kts | 99° |
| 2026-05-04 13:31 | 60.83660 | -37.64038 | 39203 ft | 521 kts | 99° |
| 2026-05-04 13:32 | 60.82499 | -37.49365 | 39204 ft | 521 kts | 99° |
| 2026-05-04 13:32 | 60.81321 | -37.34698 | 39203 ft | 521 kts | 99° |
| 2026-05-04 13:33 | 60.80136 | -37.20144 | 39205 ft | 521 kts | 99° |
| 2026-05-04 13:33 | 60.78927 | -37.05497 | 39202 ft | 521 kts | 99° |
| 2026-05-04 13:34 | 60.77701 | -36.90859 | 39202 ft | 521 kts | 99° |
| 2026-05-04 13:34 | 60.76461 | -36.76250 | 39208 ft | 521 kts | 99° |
| 2026-05-04 13:35 | 60.74570 | -36.54347 | 39207 ft | 521 kts | 100° |
| 2026-05-04 13:36 | 60.73290 | -36.39762 | 39213 ft | 521 kts | 100° |
| 2026-05-04 13:36 | 60.72003 | -36.25284 | 39215 ft | 521 kts | 100° |
| 2026-05-04 13:37 | 60.70691 | -36.10720 | 39215 ft | 521 kts | 100° |
| 2026-05-04 13:37 | 60.69363 | -35.96168 | 39217 ft | 521 kts | 100° |
| 2026-05-04 13:38 | 60.68022 | -35.81651 | 39223 ft | 521 kts | 101° |
| 2026-05-04 13:38 | 60.66673 | -35.67225 | 39224 ft | 520 kts | 101° |
| 2026-05-04 13:39 | 60.65299 | -35.52725 | 39227 ft | 520 kts | 101° |
| 2026-05-04 13:39 | 60.63909 | -35.38228 | 39235 ft | 520 kts | 101° |
| 2026-05-04 13:40 | 60.62742 | -35.26185 | 39233 ft | 520 kts | 101° |
| 2026-05-04 13:40 | 60.61326 | -35.11739 | 39234 ft | 520 kts | 101° |
| 2026-05-04 13:41 | 60.59894 | -34.97296 | 39236 ft | 520 kts | 101° |
| 2026-05-04 13:41 | 60.58444 | -34.82839 | 39242 ft | 520 kts | 101° |
| 2026-05-04 13:42 | 60.56253 | -34.61319 | 39245 ft | 520 kts | 102° |
| 2026-05-04 13:42 | 60.54766 | -34.46920 | 39244 ft | 520 kts | 102° |
| 2026-05-04 13:43 | 60.53267 | -34.32557 | 39250 ft | 520 kts | 102° |
| 2026-05-04 13:43 | 60.51749 | -34.18184 | 39253 ft | 520 kts | 102° |
| 2026-05-04 13:44 | 60.50217 | -34.03833 | 39255 ft | 520 kts | 102° |
| 2026-05-04 13:44 | 60.48671 | -33.89510 | 39253 ft | 519 kts | 102° |
| 2026-05-04 13:45 | 60.47118 | -33.75277 | 39257 ft | 519 kts | 102° |
| 2026-05-04 13:45 | 60.45541 | -33.60981 | 39258 ft | 519 kts | 103° |
| 2026-05-04 13:46 | 60.43951 | -33.46712 | 39257 ft | 519 kts | 103° |
| 2026-05-04 13:46 | 60.42345 | -33.32452 | 39264 ft | 519 kts | 103° |
| 2026-05-04 13:47 | 60.40733 | -33.18296 | 39260 ft | 519 kts | 103° |
| 2026-05-04 13:47 | 60.39099 | -33.04088 | 39261 ft | 518 kts | 103° |
| 2026-05-04 13:48 | 60.37449 | -32.89879 | 39259 ft | 518 kts | 103° |
| 2026-05-04 13:48 | 60.35785 | -32.75707 | 39264 ft | 518 kts | 103° |
| 2026-05-04 13:49 | 60.34118 | -32.61641 | 39269 ft | 517 kts | 103° |
| 2026-05-04 13:49 | 60.32426 | -32.47511 | 39269 ft | 517 kts | 104° |
| 2026-05-04 13:50 | 60.30721 | -32.33403 | 39266 ft | 517 kts | 104° |
| 2026-05-04 13:50 | 60.29003 | -32.19332 | 39264 ft | 517 kts | 104° |
| 2026-05-04 13:51 | 60.27270 | -32.05279 | 39268 ft | 516 kts | 104° |
| 2026-05-04 13:51 | 60.25524 | -31.91246 | 39271 ft | 516 kts | 104° |
| 2026-05-04 13:52 | 60.22886 | -31.70306 | 39265 ft | 516 kts | 104° |
| 2026-05-04 13:53 | 60.21107 | -31.56343 | 39268 ft | 515 kts | 104° |
| 2026-05-04 13:53 | 60.19311 | -31.42377 | 39267 ft | 515 kts | 104° |
| 2026-05-04 13:54 | 60.16592 | -31.21485 | 39264 ft | 515 kts | 105° |
| 2026-05-04 13:55 | 60.13842 | -31.00634 | 39267 ft | 515 kts | 105° |
| 2026-05-04 13:55 | 60.11061 | -30.79830 | 39268 ft | 514 kts | 105° |
| 2026-05-04 13:56 | 60.09202 | -30.66078 | 39267 ft | 514 kts | 105° |
| 2026-05-04 13:57 | 60.06370 | -30.45363 | 39266 ft | 514 kts | 105° |
| 2026-05-04 13:58 | 60.02548 | -30.17817 | 39269 ft | 513 kts | 105° |
| 2026-05-04 13:58 | 59.99644 | -29.97209 | 39265 ft | 513 kts | 106° |
| 2026-05-04 13:59 | 59.97593 | -29.83562 | 39267 ft | 513 kts | 107° |
| 2026-05-04 14:00 | 59.94404 | -29.63201 | 39264 ft | 513 kts | 107° |
| 2026-05-04 14:00 | 59.91210 | -29.42802 | 39267 ft | 513 kts | 107° |
| 2026-05-04 14:01 | 59.89090 | -29.29336 | 39264 ft | 513 kts | 107° |
| 2026-05-04 14:02 | 59.85863 | -29.09031 | 39266 ft | 513 kts | 108° |
| 2026-05-04 14:02 | 59.83695 | -28.95531 | 39263 ft | 513 kts | 108° |
| 2026-05-04 14:03 | 59.81511 | -28.82034 | 39262 ft | 513 kts | 108° |
| 2026-05-04 14:03 | 59.79324 | -28.68622 | 39264 ft | 512 kts | 108° |
| 2026-05-04 14:04 | 59.76003 | -28.48446 | 39260 ft | 513 kts | 108° |
| 2026-05-04 14:04 | 59.73774 | -28.35030 | 39264 ft | 512 kts | 108° |
| 2026-05-04 14:05 | 59.70396 | -28.14887 | 39265 ft | 513 kts | 108° |
| 2026-05-04 14:06 | 59.68133 | -28.01516 | 39259 ft | 513 kts | 108° |
| 2026-05-04 14:06 | 59.65867 | -27.88227 | 39255 ft | 512 kts | 109° |
| 2026-05-04 14:07 | 59.63575 | -27.74880 | 39260 ft | 512 kts | 109° |
| 2026-05-04 14:07 | 59.61267 | -27.61541 | 39258 ft | 512 kts | 109° |
| 2026-05-04 14:08 | 59.58950 | -27.48242 | 39256 ft | 512 kts | 109° |
| 2026-05-04 14:08 | 59.56619 | -27.34962 | 39252 ft | 512 kts | 109° |
| 2026-05-04 14:09 | 59.53096 | -27.15069 | 39250 ft | 512 kts | 109° |
| 2026-05-04 14:10 | 59.49562 | -26.95318 | 39253 ft | 512 kts | 109° |
| 2026-05-04 14:10 | 59.47178 | -26.82117 | 39249 ft | 512 kts | 109° |
| 2026-05-04 14:11 | 59.44780 | -26.68927 | 39246 ft | 512 kts | 110° |
| 2026-05-04 14:11 | 59.41159 | -26.49178 | 39251 ft | 512 kts | 110° |
| 2026-05-04 14:12 | 59.38729 | -26.36040 | 39247 ft | 512 kts | 110° |
| 2026-05-04 14:13 | 59.35067 | -26.16414 | 39244 ft | 512 kts | 110° |
| 2026-05-04 14:13 | 59.32603 | -26.03318 | 39243 ft | 512 kts | 110° |
| 2026-05-04 14:14 | 59.30125 | -25.90233 | 39239 ft | 512 kts | 110° |
| 2026-05-04 14:14 | 59.26382 | -25.70639 | 39240 ft | 512 kts | 110° |
| 2026-05-04 14:15 | 59.21347 | -25.44589 | 39240 ft | 512 kts | 111° |
| 2026-05-04 14:16 | 59.17538 | -25.25104 | 39238 ft | 512 kts | 111° |
| 2026-05-04 14:17 | 59.13711 | -25.05723 | 39241 ft | 512 kts | 111° |
| 2026-05-04 14:18 | 59.09840 | -24.86310 | 39239 ft | 512 kts | 111° |
| 2026-05-04 14:19 | 59.04635 | -24.60496 | 39235 ft | 512 kts | 111° |
| 2026-05-04 14:19 | 59.02017 | -24.47641 | 39234 ft | 512 kts | 111° |
| 2026-05-04 14:20 | 58.99382 | -24.34779 | 39233 ft | 512 kts | 112° |
| 2026-05-04 14:20 | 58.96736 | -24.21951 | 39235 ft | 512 kts | 112° |
| 2026-05-04 14:21 | 58.92757 | -24.02805 | 39228 ft | 512 kts | 112° |
| 2026-05-04 14:21 | 58.90072 | -23.89986 | 39227 ft | 512 kts | 112° |
| 2026-05-04 14:22 | 58.87383 | -23.77229 | 39224 ft | 513 kts | 112° |
| 2026-05-04 14:22 | 58.84678 | -23.64477 | 39228 ft | 513 kts | 112° |
| 2026-05-04 14:23 | 58.80593 | -23.45369 | 39230 ft | 513 kts | 112° |
| 2026-05-04 14:24 | 58.77875 | -23.32747 | 39230 ft | 513 kts | 112° |
| 2026-05-04 14:24 | 58.75123 | -23.20049 | 39225 ft | 513 kts | 112° |
| 2026-05-04 14:25 | 58.72363 | -23.07396 | 39226 ft | 513 kts | 113° |
| 2026-05-04 14:25 | 58.68196 | -22.88426 | 39225 ft | 513 kts | 113° |
| 2026-05-04 14:26 | 58.65874 | -22.77934 | 39225 ft | 513 kts | 113° |
| 2026-05-04 14:26 | 58.63068 | -22.65321 | 39221 ft | 513 kts | 113° |
| 2026-05-04 14:27 | 58.60248 | -22.52721 | 39221 ft | 513 kts | 113° |
| 2026-05-04 14:27 | 58.57420 | -22.40160 | 39221 ft | 513 kts | 113° |
| 2026-05-04 14:28 | 58.54597 | -22.27699 | 39218 ft | 513 kts | 114° |
| 2026-05-04 14:28 | 58.51741 | -22.15162 | 39220 ft | 513 kts | 114° |
| 2026-05-04 14:29 | 58.45991 | -21.90146 | 39214 ft | 513 kts | 114° |
| 2026-05-04 14:30 | 58.43119 | -21.77763 | 39219 ft | 513 kts | 114° |
| 2026-05-04 14:31 | 58.38760 | -21.59098 | 39209 ft | 513 kts | 114° |
| 2026-05-04 14:32 | 58.32925 | -21.34367 | 39205 ft | 513 kts | 114° |
| 2026-05-04 14:32 | 58.29983 | -21.22002 | 39213 ft | 513 kts | 114° |
| 2026-05-04 14:33 | 58.27031 | -21.09666 | 39210 ft | 513 kts | 115° |
| 2026-05-04 14:33 | 58.24063 | -20.97339 | 39208 ft | 513 kts | 115° |
| 2026-05-04 14:34 | 58.21083 | -20.85027 | 39203 ft | 513 kts | 115° |
| 2026-05-04 14:34 | 58.18095 | -20.72752 | 39204 ft | 513 kts | 115° |
| 2026-05-04 14:35 | 58.15115 | -20.60575 | 39205 ft | 513 kts | 115° |
| 2026-05-04 14:35 | 58.12105 | -20.48349 | 39204 ft | 513 kts | 115° |
| 2026-05-04 14:36 | 58.09081 | -20.36133 | 39204 ft | 513 kts | 115° |
| 2026-05-04 14:36 | 58.06045 | -20.23933 | 39200 ft | 513 kts | 115° |
| 2026-05-04 14:37 | 58.02997 | -20.11756 | 39200 ft | 513 kts | 115° |
| 2026-05-04 14:37 | 58.00041 | -19.99513 | 39202 ft | 513 kts | 109° |
| 2026-05-04 14:38 | 57.97684 | -19.86822 | 39198 ft | 513 kts | 108° |
| 2026-05-04 14:38 | 57.95449 | -19.74162 | 39196 ft | 513 kts | 108° |
| 2026-05-04 14:39 | 57.93196 | -19.61400 | 39196 ft | 513 kts | 108° |
| 2026-05-04 14:39 | 57.90918 | -19.48665 | 39196 ft | 513 kts | 108° |
| 2026-05-04 14:40 | 57.87469 | -19.29614 | 39192 ft | 513 kts | 109° |
| 2026-05-04 14:40 | 57.85154 | -19.16940 | 39189 ft | 513 kts | 109° |
| 2026-05-04 14:41 | 57.82834 | -19.04319 | 39189 ft | 513 kts | 109° |
| 2026-05-04 14:42 | 57.78139 | -18.79034 | 39188 ft | 513 kts | 109° |
| 2026-05-04 14:42 | 57.75769 | -18.66399 | 39183 ft | 513 kts | 109° |
| 2026-05-04 14:43 | 57.73390 | -18.53797 | 39182 ft | 513 kts | 109° |
| 2026-05-04 14:43 | 57.70996 | -18.41199 | 39181 ft | 513 kts | 109° |
| 2026-05-04 14:44 | 57.68604 | -18.28694 | 39180 ft | 513 kts | 109° |
| 2026-05-04 14:44 | 57.66184 | -18.16121 | 39179 ft | 513 kts | 110° |
| 2026-05-04 14:45 | 57.63753 | -18.03577 | 39173 ft | 513 kts | 110° |
| 2026-05-04 14:45 | 57.61311 | -17.91053 | 39174 ft | 513 kts | 110° |
| 2026-05-04 14:46 | 57.58874 | -17.78635 | 39174 ft | 513 kts | 110° |
| 2026-05-04 14:46 | 57.56404 | -17.66132 | 39171 ft | 513 kts | 110° |
| 2026-05-04 14:47 | 57.53927 | -17.53670 | 39172 ft | 513 kts | 110° |
| 2026-05-04 14:47 | 57.51435 | -17.41212 | 39167 ft | 513 kts | 110° |
| 2026-05-04 14:48 | 57.48934 | -17.28783 | 39167 ft | 513 kts | 110° |
| 2026-05-04 14:48 | 57.46416 | -17.16354 | 39164 ft | 513 kts | 110° |
| 2026-05-04 14:49 | 57.43888 | -17.03950 | 39164 ft | 513 kts | 111° |
| 2026-05-04 14:49 | 57.41367 | -16.91654 | 39165 ft | 513 kts | 111° |
| 2026-05-04 14:50 | 57.38816 | -16.79291 | 39162 ft | 513 kts | 111° |
| 2026-05-04 14:50 | 57.36251 | -16.66932 | 39161 ft | 513 kts | 111° |
| 2026-05-04 14:51 | 57.33676 | -16.54604 | 39163 ft | 513 kts | 111° |
| 2026-05-04 14:51 | 57.31091 | -16.42304 | 39156 ft | 513 kts | 111° |
| 2026-05-04 14:52 | 57.28494 | -16.30019 | 39154 ft | 513 kts | 111° |
| 2026-05-04 14:52 | 57.25879 | -16.17725 | 39154 ft | 513 kts | 111° |
| 2026-05-04 14:53 | 57.23271 | -16.05534 | 39152 ft | 513 kts | 111° |
| 2026-05-04 14:53 | 57.20638 | -15.93305 | 39150 ft | 513 kts | 111° |
| 2026-05-04 14:54 | 57.17993 | -15.81086 | 39150 ft | 513 kts | 112° |
| 2026-05-04 14:54 | 57.15335 | -15.68880 | 39143 ft | 513 kts | 112° |
| 2026-05-04 14:55 | 57.12660 | -15.56671 | 39145 ft | 513 kts | 112° |
| 2026-05-04 14:55 | 57.09980 | -15.44510 | 39143 ft | 513 kts | 112° |
| 2026-05-04 14:56 | 57.07287 | -15.32360 | 39140 ft | 512 kts | 112° |
| 2026-05-04 14:56 | 57.04604 | -15.20326 | 39142 ft | 512 kts | 112° |
| 2026-05-04 14:57 | 57.01892 | -15.08229 | 39138 ft | 512 kts | 112° |
| 2026-05-04 14:57 | 56.99921 | -14.95675 | 39139 ft | 511 kts | 96° |
| 2026-05-04 14:58 | 56.99151 | -14.82720 | 39133 ft | 511 kts | 94° |
| 2026-05-04 14:58 | 56.98561 | -14.69732 | 39130 ft | 512 kts | 94° |
| 2026-05-04 14:59 | 56.97965 | -14.56732 | 39126 ft | 512 kts | 94° |
| 2026-05-04 15:00 | 56.97003 | -14.37304 | 39128 ft | 512 kts | 94° |
| 2026-05-04 15:00 | 56.96332 | -14.24320 | 39122 ft | 512 kts | 95° |
| 2026-05-04 15:01 | 56.95270 | -14.04828 | 39117 ft | 512 kts | 97° |
| 2026-05-04 15:01 | 56.93377 | -13.92283 | 39117 ft | 512 kts | 110° |
| 2026-05-04 15:02 | 56.90804 | -13.80133 | 39113 ft | 512 kts | 112° |
| 2026-05-04 15:02 | 56.88123 | -13.68059 | 39114 ft | 512 kts | 112° |
| 2026-05-04 15:03 | 56.85440 | -13.55988 | 39116 ft | 512 kts | 112° |
| 2026-05-04 15:03 | 56.82785 | -13.44015 | 39114 ft | 512 kts | 112° |
| 2026-05-04 15:04 | 56.80104 | -13.31954 | 39113 ft | 512 kts | 112° |
| 2026-05-04 15:04 | 56.77413 | -13.19914 | 39106 ft | 512 kts | 112° |
| 2026-05-04 15:05 | 56.74713 | -13.07909 | 39108 ft | 512 kts | 112° |
| 2026-05-04 15:05 | 56.71995 | -12.95897 | 39113 ft | 512 kts | 112° |
| 2026-05-04 15:06 | 56.69271 | -12.83925 | 39101 ft | 512 kts | 112° |
| 2026-05-04 15:07 | 56.65180 | -12.66070 | 39101 ft | 512 kts | 113° |
| 2026-05-04 15:07 | 56.62424 | -12.54126 | 39100 ft | 512 kts | 113° |
| 2026-05-04 15:08 | 56.59659 | -12.42213 | 39102 ft | 512 kts | 113° |
| 2026-05-04 15:08 | 56.56882 | -12.30313 | 39099 ft | 512 kts | 113° |
| 2026-05-04 15:09 | 56.54109 | -12.18492 | 39097 ft | 512 kts | 113° |
| 2026-05-04 15:09 | 56.51309 | -12.06626 | 39094 ft | 512 kts | 113° |
| 2026-05-04 15:10 | 56.47094 | -11.88882 | 39095 ft | 512 kts | 114° |
| 2026-05-04 15:11 | 56.42852 | -11.71174 | 39095 ft | 512 kts | 114° |
| 2026-05-04 15:11 | 56.40008 | -11.59379 | 39093 ft | 511 kts | 114° |
| 2026-05-04 15:12 | 56.37157 | -11.47620 | 39089 ft | 511 kts | 114° |
| 2026-05-04 15:12 | 56.34777 | -11.37853 | 39088 ft | 511 kts | 114° |
| 2026-05-04 15:13 | 56.31440 | -11.24228 | 39090 ft | 511 kts | 114° |
| 2026-05-04 15:13 | 56.28556 | -11.12524 | 39087 ft | 511 kts | 114° |
| 2026-05-04 15:14 | 56.26135 | -11.02745 | 39087 ft | 511 kts | 115° |
| 2026-05-04 15:14 | 56.23253 | -10.91164 | 39087 ft | 511 kts | 115° |
| 2026-05-04 15:15 | 56.20335 | -10.79496 | 39085 ft | 511 kts | 115° |
| 2026-05-04 15:15 | 56.17412 | -10.67873 | 39085 ft | 511 kts | 115° |
| 2026-05-04 15:16 | 56.13005 | -10.50458 | 39086 ft | 511 kts | 115° |
| 2026-05-04 15:17 | 56.08575 | -10.33091 | 39087 ft | 511 kts | 115° |
| 2026-05-04 15:17 | 56.04137 | -10.15829 | 39085 ft | 510 kts | 115° |
| 2026-05-04 15:18 | 56.01156 | -10.04306 | 39086 ft | 510 kts | 115° |
| 2026-05-04 15:19 | 55.95997 | -9.87706 | 39086 ft | 509 kts | 122° |
| 2026-05-04 15:19 | 55.90563 | -9.71456 | 39088 ft | 508 kts | 122° |
| 2026-05-04 15:20 | 55.86953 | -9.60717 | 39085 ft | 508 kts | 122° |
| 2026-05-04 15:20 | 55.83318 | -9.49926 | 39084 ft | 507 kts | 122° |
| 2026-05-04 15:21 | 55.79684 | -9.39177 | 39087 ft | 507 kts | 122° |
| 2026-05-04 15:22 | 55.74219 | -9.23104 | 39086 ft | 506 kts | 122° |
| 2026-05-04 15:22 | 55.68744 | -9.07108 | 39087 ft | 505 kts | 122° |
| 2026-05-04 15:23 | 55.65083 | -8.96468 | 39084 ft | 505 kts | 122° |
| 2026-05-04 15:23 | 55.61446 | -8.85948 | 39086 ft | 504 kts | 122° |
| 2026-05-04 15:24 | 55.54105 | -8.64848 | 39086 ft | 503 kts | 122° |
| 2026-05-04 15:25 | 55.50422 | -8.54329 | 39085 ft | 502 kts | 122° |
| 2026-05-04 15:26 | 55.44923 | -8.38711 | 39089 ft | 501 kts | 122° |
| 2026-05-04 15:26 | 55.39393 | -8.23103 | 39085 ft | 500 kts | 123° |
| 2026-05-04 15:27 | 55.33847 | -8.07550 | 39092 ft | 499 kts | 123° |
| 2026-05-04 15:28 | 55.28312 | -7.92127 | 39086 ft | 498 kts | 123° |
| 2026-05-04 15:29 | 55.22754 | -7.76737 | 39084 ft | 497 kts | 123° |
| 2026-05-04 15:30 | 55.09775 | -7.41166 | 39096 ft | 495 kts | 123° |
| 2026-05-04 15:31 | 55.04183 | -7.26002 | 39103 ft | 494 kts | 123° |
| 2026-05-04 15:32 | 54.94878 | -7.00967 | 39099 ft | 493 kts | 123° |
| 2026-05-04 15:34 | 54.85527 | -6.76063 | 39082 ft | 492 kts | 123° |
| 2026-05-04 15:34 | 54.79899 | -6.61195 | 39078 ft | 491 kts | 123° |
| 2026-05-04 15:35 | 54.74279 | -6.46435 | 39079 ft | 490 kts | 123° |
| 2026-05-04 15:36 | 54.68632 | -6.31694 | 39078 ft | 490 kts | 123° |
| 2026-05-04 15:36 | 54.64853 | -6.21878 | 39077 ft | 490 kts | 123° |
| 2026-05-04 15:37 | 54.61068 | -6.12084 | 39073 ft | 490 kts | 123° |
| 2026-05-04 15:37 | 54.57277 | -6.02315 | 39075 ft | 490 kts | 123° |
| 2026-05-04 15:38 | 54.53480 | -5.92568 | 39075 ft | 490 kts | 123° |
| 2026-05-04 15:38 | 54.49667 | -5.82818 | 39077 ft | 490 kts | 123° |
| 2026-05-04 15:39 | 54.45874 | -5.73157 | 39074 ft | 490 kts | 123° |
| 2026-05-04 15:40 | 54.40139 | -5.58618 | 39074 ft | 490 kts | 123° |
| 2026-05-04 15:40 | 54.36323 | -5.48993 | 39075 ft | 490 kts | 123° |
| 2026-05-04 15:41 | 54.32485 | -5.39349 | 39080 ft | 490 kts | 123° |
| 2026-05-04 15:41 | 54.28628 | -5.29696 | 39078 ft | 490 kts | 123° |
| 2026-05-04 15:42 | 54.24772 | -5.20082 | 39074 ft | 490 kts | 123° |
| 2026-05-04 15:42 | 54.20901 | -5.10468 | 39072 ft | 490 kts | 123° |
| 2026-05-04 15:43 | 54.17026 | -5.00879 | 39074 ft | 490 kts | 123° |
| 2026-05-04 15:43 | 54.13170 | -4.91377 | 39075 ft | 491 kts | 123° |
| 2026-05-04 15:44 | 54.09280 | -4.81824 | 39075 ft | 490 kts | 123° |
| 2026-05-04 15:44 | 54.05371 | -4.72261 | 39074 ft | 490 kts | 123° |
| 2026-05-04 15:45 | 54.01487 | -4.62796 | 39076 ft | 490 kts | 123° |
| 2026-05-04 15:45 | 53.97574 | -4.53297 | 39073 ft | 490 kts | 124° |
| 2026-05-04 15:46 | 53.93659 | -4.43831 | 39071 ft | 489 kts | 124° |
| 2026-05-04 15:46 | 53.89738 | -4.34378 | 39068 ft | 489 kts | 124° |
| 2026-05-04 15:47 | 53.86158 | -4.25650 | 39063 ft | 488 kts | 123° |
| 2026-05-04 15:47 | 53.82298 | -4.16188 | 39062 ft | 488 kts | 123° |
| 2026-05-04 15:48 | 53.78424 | -4.06736 | 39060 ft | 488 kts | 124° |
| 2026-05-04 15:48 | 53.72589 | -3.92633 | 39061 ft | 487 kts | 124° |
| 2026-05-04 15:49 | 53.68695 | -3.83262 | 39062 ft | 487 kts | 124° |
| 2026-05-04 15:49 | 53.64791 | -3.73902 | 39063 ft | 487 kts | 124° |
| 2026-05-04 15:50 | 53.60886 | -3.64568 | 39063 ft | 487 kts | 124° |
| 2026-05-04 15:50 | 53.56994 | -3.55288 | 39064 ft | 487 kts | 124° |
| 2026-05-04 15:51 | 53.53079 | -3.46013 | 39064 ft | 486 kts | 124° |
| 2026-05-04 15:51 | 53.49157 | -3.36750 | 39062 ft | 486 kts | 124° |
| 2026-05-04 15:52 | 53.45231 | -3.27508 | 39067 ft | 486 kts | 125° |
| 2026-05-04 15:52 | 53.41295 | -3.18274 | 39070 ft | 486 kts | 125° |
| 2026-05-04 15:53 | 53.37380 | -3.09145 | 39074 ft | 486 kts | 126° |
| 2026-05-04 15:53 | 53.33335 | -3.00056 | 39075 ft | 486 kts | 127° |
| 2026-05-04 15:54 | 53.29287 | -2.91070 | 39073 ft | 487 kts | 127° |
| 2026-05-04 15:54 | 53.25205 | -2.81994 | 39077 ft | 488 kts | 126° |
| 2026-05-04 15:55 | 53.21133 | -2.72921 | 39072 ft | 489 kts | 127° |
| 2026-05-04 15:55 | 53.17039 | -2.63853 | 39054 ft | 489 kts | 127° |
| 2026-05-04 15:56 | 53.12937 | -2.54785 | 39053 ft | 490 kts | 126° |
| 2026-05-04 15:56 | 53.09095 | -2.45416 | 39060 ft | 490 kts | 123° |
| 2026-05-04 15:57 | 53.05300 | -2.36072 | 39060 ft | 490 kts | 124° |
| 2026-05-04 15:57 | 53.00686 | -2.27869 | 38789 ft | 481 kts | 146° |
| 2026-05-04 15:58 | 52.97918 | -2.24872 | 37905 ft | 469 kts | 148° |
| 2026-05-04 15:58 | 52.95181 | -2.22071 | 37243 ft | 456 kts | 147° |
| 2026-05-04 15:58 | 52.92504 | -2.19315 | 36626 ft | 452 kts | 147° |
| 2026-05-04 15:58 | 52.89826 | -2.16541 | 36003 ft | 455 kts | 146° |
| 2026-05-04 15:59 | 52.87143 | -2.13752 | 35362 ft | 456 kts | 146° |
| 2026-05-04 15:59 | 52.84455 | -2.10957 | 34675 ft | 455 kts | 146° |
| 2026-05-04 15:59 | 52.81764 | -2.08156 | 33941 ft | 460 kts | 145° |
| 2026-05-04 15:59 | 52.79041 | -2.05322 | 33094 ft | 464 kts | 146° |
| 2026-05-04 16:00 | 52.77228 | -2.03438 | 32570 ft | 465 kts | 146° |
| 2026-05-04 16:00 | 52.73580 | -1.99652 | 31520 ft | 468 kts | 146° |
| 2026-05-04 16:00 | 52.70814 | -1.96787 | 30784 ft | 470 kts | 146° |
| 2026-05-04 16:00 | 52.68050 | -1.93930 | 30185 ft | 467 kts | 146° |
| 2026-05-04 16:01 | 52.66196 | -1.92017 | 29747 ft | 465 kts | 147° |
| 2026-05-04 16:01 | 52.63469 | -1.89204 | 29126 ft | 460 kts | 147° |
| 2026-05-04 16:01 | 52.60799 | -1.86454 | 28558 ft | 456 kts | 147° |
| 2026-05-04 16:01 | 52.58123 | -1.83703 | 27977 ft | 452 kts | 148° |
| 2026-05-04 16:02 | 52.55467 | -1.80975 | 27416 ft | 447 kts | 148° |
| 2026-05-04 16:02 | 52.52837 | -1.78279 | 26850 ft | 444 kts | 148° |
| 2026-05-04 16:02 | 52.47632 | -1.72954 | 25751 ft | 436 kts | 148° |
| 2026-05-04 16:03 | 52.45064 | -1.70332 | 25216 ft | 433 kts | 148° |
| 2026-05-04 16:03 | 52.42518 | -1.67737 | 24658 ft | 430 kts | 148° |
| 2026-05-04 16:03 | 52.39985 | -1.65158 | 24116 ft | 427 kts | 149° |
| 2026-05-04 16:03 | 52.37464 | -1.62594 | 23571 ft | 424 kts | 149° |
| 2026-05-04 16:04 | 52.34957 | -1.60049 | 22961 ft | 421 kts | 149° |
| 2026-05-04 16:04 | 52.30030 | -1.55057 | 21875 ft | 412 kts | 149° |
| 2026-05-04 16:04 | 52.27600 | -1.52598 | 21331 ft | 409 kts | 149° |
| 2026-05-04 16:05 | 52.25222 | -1.50195 | 20792 ft | 406 kts | 149° |
| 2026-05-04 16:05 | 52.22800 | -1.47744 | 20243 ft | 403 kts | 148° |
| 2026-05-04 16:05 | 52.18432 | -1.42126 | 19377 ft | 407 kts | 140° |
| 2026-05-04 16:06 | 52.16279 | -1.39102 | 18990 ft | 408 kts | 140° |
| 2026-05-04 16:06 | 52.10582 | -1.31142 | 17859 ft | 402 kts | 140° |
| 2026-05-04 16:07 | 52.07751 | -1.27205 | 17306 ft | 399 kts | 140° |
| 2026-05-04 16:07 | 52.01467 | -1.18490 | 16089 ft | 393 kts | 141° |
| 2026-05-04 16:08 | 51.99386 | -1.15612 | 15681 ft | 391 kts | 141° |
| 2026-05-04 16:08 | 51.93195 | -1.07060 | 14337 ft | 386 kts | 141° |
| 2026-05-04 16:09 | 51.89150 | -1.01502 | 13282 ft | 382 kts | 141° |
| 2026-05-04 16:09 | 51.85211 | -0.95805 | 12272 ft | 378 kts | 129° |
| 2026-05-04 16:10 | 51.82750 | -0.88266 | 11322 ft | 378 kts | 116° |
| 2026-05-04 16:11 | 51.79373 | -0.76903 | 9837 ft | 369 kts | 117° |
| 2026-05-04 16:11 | 51.78283 | -0.73315 | 9358 ft | 342 kts | 117° |
| 2026-05-04 16:12 | 51.75425 | -0.63991 | 8161 ft | 290 kts | 118° |
| 2026-05-04 16:12 | 51.72715 | -0.55308 | 6987 ft | 286 kts | 121° |
| 2026-05-04 16:13 | 51.70509 | -0.50180 | 6881 ft | 278 kts | 127° |
| 2026-05-04 16:13 | 51.68238 | -0.45118 | 6875 ft | 278 kts | 127° |
| 2026-05-04 16:14 | 51.65973 | -0.40069 | 6880 ft | 278 kts | 127° |
| 2026-05-04 16:14 | 51.63717 | -0.35045 | 6873 ft | 278 kts | 127° |
| 2026-05-04 16:15 | 51.60287 | -0.27509 | 6743 ft | 278 kts | 129° |
| 2026-05-04 16:16 | 51.57991 | -0.22688 | 6335 ft | 257 kts | 129° |
| 2026-05-04 16:16 | 51.54981 | -0.16172 | 5266 ft | 232 kts | 127° |
| 2026-05-04 16:17 | 51.52336 | -0.14128 | 4492 ft | 213 kts | 183° |
| 2026-05-04 16:18 | 51.47969 | -0.15737 | 3508 ft | 213 kts | 204° |
| 2026-05-04 16:18 | 51.46932 | -0.17209 | 3385 ft | 190 kts | 241° |
| 2026-05-04 16:19 | 51.46571 | -0.22832 | 2726 ft | 167 kts | 274° |
| 2026-05-04 16:19 | 51.46538 | -0.26547 | 2253 ft | 167 kts | 272° |
| 2026-05-04 16:20 | 51.46528 | -0.31955 | 1599 ft | 158 kts | 272° |
| 2026-05-04 16:20 | 51.46519 | -0.35289 | 1177 ft | 146 kts | 272° |
| 2026-05-04 16:21 | 51.46502 | -0.40144 | 531 ft | 145 kts | 273° |
| 2026-05-04 16:22 | 51.46503 | -0.43370 | 181 ft | 147 kts | 270° |
| 2026-05-04 16:22 | 51.46518 | -0.46634 | 98 ft | 29 kts | 288° |
| 2026-05-04 16:23 | 51.46741 | -0.47045 | 93 ft | 11 kts | 271° |
| 2026-05-04 16:24 | 51.46743 | -0.47155 | 93 ft | 8 kts | 272° |
| 2026-05-04 16:25 | 51.46792 | -0.47352 | 97 ft | 9 kts | 348° |
| 2026-05-04 16:26 | 51.46983 | -0.47458 | 96 ft | 4 kts | 268° |
| 2026-05-04 16:26 | 51.46982 | -0.47498 | 95 ft | 0 kts | 268° |